Time;durP1;ratioP1;P1;durP2;ratioP2;P2;SDS_P1;SDS_P2;PMS_P1;PMS_P2;Temp;Humidity;BMP_temperature;BMP_pressure;BME280_temperature;BME280_humidity;BME280_pressure;Samples;Min_cycle;Max_cycle;Signal;HPM_P1;HPM_P2
2023/05/03 00:01:00;;;;;;;14.63;8.85;;;12.90;95.20;;;;;;4133061;28;20054;-53
2023/05/03 00:03:03;;;;;;;16.17;9.30;;;12.90;95.30;;;;;;4133089;28;20050;-54
2023/05/03 00:05:11;;;;;;;15.60;8.40;;;12.80;95.40;;;;;;4132927;28;20042;-54
2023/05/03 00:07:13;;;;;;;17.40;9.25;;;12.80;95.40;;;;;;4133112;28;20050;-54
2023/05/03 00:09:16;;;;;;;16.63;8.80;;;12.80;95.40;;;;;;4131685;28;20073;-53
2023/05/03 00:11:20;;;;;;;14.00;8.27;;;12.70;95.40;;;;;;4133003;28;20051;-54
2023/05/03 00:13:22;;;;;;;16.20;9.33;;;12.70;95.40;;;;;;4132820;28;20050;-54
2023/05/03 00:15:24;;;;;;;16.40;8.38;;;12.60;95.40;;;;;;4132664;28;20463;-54
2023/05/03 00:17:26;;;;;;;15.65;8.32;;;12.50;95.40;;;;;;4132946;28;20105;-53
2023/05/03 00:19:31;;;;;;;14.40;8.70;;;12.60;95.40;;;;;;4131995;28;20050;-54
2023/05/03 00:21:34;;;;;;;15.63;8.98;;;12.50;95.40;;;;;;4132685;28;20082;-53
2023/05/03 00:23:36;;;;;;;18.85;8.45;;;12.40;95.40;;;;;;4132348;28;20069;-53
2023/05/03 00:25:38;;;;;;;15.85;7.65;;;12.40;95.50;;;;;;4132651;28;20050;-53
2023/05/03 00:27:41;;;;;;;13.95;7.80;;;12.50;95.40;;;;;;4132174;28;20050;-54
2023/05/03 00:29:44;;;;;;;11.98;7.95;;;12.40;95.10;;;;;;4132609;28;20054;-53
2023/05/03 00:31:46;;;;;;;14.38;8.50;;;12.40;95.20;;;;;;4132913;28;20146;-53
2023/05/03 00:33:48;;;;;;;14.73;8.73;;;12.50;95.40;;;;;;4132573;28;20042;-53
2023/05/03 00:35:50;;;;;;;11.43;7.47;;;12.50;95.40;;;;;;4132409;28;20400;-53
2023/05/03 00:37:52;;;;;;;11.90;7.63;;;12.40;95.30;;;;;;4131824;28;20073;-54
2023/05/03 00:39:54;;;;;;;11.18;7.80;;;12.40;95.50;;;;;;4132416;28;20058;-54
2023/05/03 00:41:56;;;;;;;11.20;6.97;;;12.30;95.20;;;;;;4132439;28;20419;-53
2023/05/03 00:44:00;;;;;;;12.45;7.28;;;12.30;95.20;;;;;;4132318;28;20050;-54
2023/05/03 00:46:04;;;;;;;13.35;7.22;;;12.30;95.10;;;;;;4132162;28;20493;-53
2023/05/03 00:48:18;;;;;;;11.57;6.47;;;12.30;95.10;;;;;;4131417;28;20053;-54
2023/05/03 00:50:21;;;;;;;13.93;6.22;;;12.30;95.20;;;;;;4132346;28;20060;-53
2023/05/03 00:52:23;;;;;;;14.75;7.63;;;12.30;95.40;;;;;;4132001;28;20506;-54
2023/05/03 00:54:26;;;;;;;11.63;7.30;;;12.30;95.10;;;;;;4132215;28;20068;-53
2023/05/03 00:56:29;;;;;;;14.88;7.28;;;12.30;95.00;;;;;;4132124;28;20050;-53
2023/05/03 00:58:40;;;;;;;12.73;7.10;;;12.30;95.10;;;;;;4131341;28;20054;-53
2023/05/03 01:00:44;;;;;;;15.75;7.80;;;12.20;95.00;;;;;;4132259;28;20481;-53
2023/05/03 01:02:46;;;;;;;13.77;7.78;;;12.20;94.90;;;;;;4132229;28;20043;-55
2023/05/03 01:04:48;;;;;;;12.05;7.70;;;12.20;95.00;;;;;;4132627;28;20094;-53
2023/05/03 01:06:58;;;;;;;15.38;8.40;;;12.10;94.90;;;;;;4132274;28;20054;-54
2023/05/03 01:09:03;;;;;;;13.00;7.43;;;12.00;95.20;;;;;;4131418;28;20508;-53
2023/05/03 01:11:16;;;;;;;16.50;8.25;;;11.90;95.10;;;;;;4132218;28;20054;-53
2023/05/03 01:13:23;;;;;;;14.13;8.00;;;12.00;95.20;;;;;;4132228;28;20081;-53
2023/05/03 01:15:40;;;;;;;15.10;7.43;;;11.90;95.20;;;;;;4132174;28;20380;-53
2023/05/03 01:17:49;;;;;;;13.93;8.32;;;11.90;95.30;;;;;;4114667;28;20055;-54
2023/05/03 01:19:56;;;;;;;16.98;7.88;;;11.90;95.40;;;;;;4131651;28;20070;-53
2023/05/03 01:22:09;;;;;;;15.85;8.43;;;11.80;95.10;;;;;;4131303;28;20133;-53
2023/05/03 01:24:16;;;;;;;12.88;7.97;;;11.90;95.20;;;;;;4131996;28;20076;-53
2023/05/03 01:26:21;;;;;;;13.50;7.55;;;11.80;95.10;;;;;;4131785;28;20393;-54
2023/05/03 01:28:23;;;;;;;12.57;7.38;;;11.80;95.20;;;;;;4130980;28;20054;-53
2023/05/03 01:30:27;;;;;;;13.10;7.78;;;11.80;95.20;;;;;;4131553;28;20152;-52
2023/05/03 01:32:44;;;;;;;12.73;7.57;;;11.70;95.10;;;;;;4131735;28;20047;-54
2023/05/03 01:35:02;;;;;;;14.10;7.05;;;11.70;95.30;;;;;;4131670;28;20054;-54
2023/05/03 01:37:09;;;;;;;16.52;7.70;;;11.70;95.40;;;;;;4130761;28;20046;-54
2023/05/03 01:39:15;;;;;;;10.50;7.25;;;11.60;95.50;;;;;;4130559;28;20046;-53
2023/05/03 01:41:19;;;;;;;21.10;7.38;;;11.60;95.70;;;;;;4131547;28;20545;-53
2023/05/03 01:43:23;;;;;;;13.27;7.60;;;11.60;95.70;;;;;;4131501;28;20042;-53
2023/05/03 01:45:25;;;;;;;11.73;7.40;;;11.50;95.50;;;;;;4114082;28;20047;-54
2023/05/03 01:47:27;;;;;;;10.52;7.05;;;11.50;95.30;;;;;;4131481;28;20038;-53
2023/05/03 01:49:30;;;;;;;12.70;8.25;;;11.50;95.20;;;;;;4130656;28;20433;-53
2023/05/03 01:51:32;;;;;;;15.35;7.47;;;11.60;95.20;;;;;;4131419;28;20050;-53
2023/05/03 01:53:34;;;;;;;15.48;8.65;;;11.50;95.30;;;;;;4131299;28;20038;-53
2023/05/03 01:55:36;;;;;;;14.13;7.90;;;11.50;95.20;;;;;;4131510;28;20212;-53
2023/05/03 01:57:38;;;;;;;14.95;8.25;;;11.40;95.40;;;;;;4131446;28;20046;-54
2023/05/03 01:59:41;;;;;;;14.73;8.88;;;11.50;95.30;;;;;;4130339;28;20054;-54
2023/05/03 02:01:43;;;;;;;16.55;8.25;;;11.50;95.10;;;;;;4131533;28;20046;-53
2023/05/03 02:03:45;;;;;;;16.83;8.18;;;11.50;95.20;;;;;;4130475;28;20042;-54
2023/05/03 02:05:47;;;;;;;13.13;7.57;;;11.40;95.20;;;;;;4131092;28;20046;-53
2023/05/03 02:07:49;;;;;;;17.48;8.25;;;11.20;95.30;;;;;;4131468;28;20385;-53
2023/05/03 02:09:51;;;;;;;15.20;8.20;;;11.30;95.30;;;;;;4130218;28;20064;-53
2023/05/03 02:11:53;;;;;;;16.23;7.97;;;11.20;95.20;;;;;;4131224;28;20042;-53
2023/05/03 02:13:55;;;;;;;14.48;8.27;;;11.20;95.10;;;;;;4131152;28;20054;-53
2023/05/03 02:15:59;;;;;;;15.73;8.15;;;11.20;95.10;;;;;;4131285;28;20487;-54
2023/05/03 02:18:02;;;;;;;12.60;8.75;;;11.20;95.30;;;;;;4130994;28;20050;-53
2023/05/03 02:20:08;;;;;;;15.40;8.60;;;11.20;95.30;;;;;;4130592;28;20070;-52
2023/05/03 02:22:10;;;;;;;11.93;7.75;;;11.20;95.30;;;;;;4131034;28;20055;-53
2023/05/03 02:24:12;;;;;;;16.75;8.02;;;11.20;95.40;;;;;;4131363;28;20042;-53
2023/05/03 02:26:14;;;;;;;16.63;8.50;;;11.20;95.40;;;;;;4131541;28;20050;-55
2023/05/03 02:28:16;;;;;;;13.82;8.27;;;11.10;95.30;;;;;;4097389;29;20118;-52
2023/05/03 02:30:18;;;;;;;15.50;8.38;;;11.10;95.40;;;;;;4131154;28;20062;-53
2023/05/03 02:32:22;;;;;;;15.90;8.25;;;11.10;95.40;;;;;;4131738;28;20056;-53
2023/05/03 02:34:26;;;;;;;15.50;8.73;;;11.10;95.50;;;;;;4131218;28;20472;-53
2023/05/03 02:36:28;;;;;;;17.95;8.23;;;11.10;95.40;;;;;;4131368;28;20502;-52
2023/05/03 02:38:31;;;;;;;20.80;8.57;;;11.10;95.50;;;;;;4130294;28;20562;-52
2023/05/03 02:40:33;;;;;;;16.25;8.48;;;11.10;95.50;;;;;;4131150;28;20053;-53
2023/05/03 02:42:35;;;;;;;12.55;7.82;;;11.00;95.50;;;;;;4131208;28;20050;-53
2023/05/03 02:44:37;;;;;;;13.77;7.93;;;11.00;95.50;;;;;;4131380;28;20050;-53
2023/05/03 02:46:40;;;;;;;19.70;8.13;;;10.90;95.60;;;;;;4131153;28;20134;-53
2023/05/03 02:48:44;;;;;;;14.43;7.78;;;10.90;95.80;;;;;;4129994;28;20070;-53
2023/05/03 02:50:46;;;;;;;16.15;7.60;;;10.90;95.80;;;;;;4130926;28;20121;-53
2023/05/03 02:52:48;;;;;;;12.60;7.72;;;10.90;95.80;;;;;;4130910;28;20054;-53
2023/05/03 02:54:50;;;;;;;12.95;7.47;;;10.90;95.70;;;;;;4131042;28;20412;-53
2023/05/03 02:56:52;;;;;;;15.30;7.28;;;10.90;95.90;;;;;;4130818;28;20042;-54
2023/05/03 02:58:54;;;;;;;13.35;8.23;;;10.90;95.80;;;;;;4130135;28;20077;-53
2023/05/03 03:00:56;;;;;;;23.73;8.23;;;10.90;95.80;;;;;;4130880;28;20081;-53
2023/05/03 03:02:58;;;;;;;13.45;7.80;;;10.90;95.70;;;;;;4130716;28;20042;-54
2023/05/03 03:05:02;;;;;;;16.08;8.38;;;10.80;96.00;;;;;;4130752;28;20117;-53
2023/05/03 03:07:04;;;;;;;17.50;8.73;;;10.80;95.70;;;;;;4130796;28;20050;-53
2023/05/03 03:09:06;;;;;;;13.10;7.80;;;10.70;95.60;;;;;;4129693;28;20046;-53
2023/05/03 03:11:08;;;;;;;11.93;7.75;;;10.60;96.00;;;;;;4130959;28;20042;-54
2023/05/03 03:13:10;;;;;;;15.07;8.93;;;10.60;95.80;;;;;;4130724;28;20053;-54
2023/05/03 03:15:12;;;;;;;18.08;8.13;;;10.50;96.10;;;;;;4131801;28;20058;-53
2023/05/03 03:17:14;;;;;;;15.27;8.48;;;10.50;95.90;;;;;;4133993;28;20082;-54
2023/05/03 03:19:16;;;;;;;16.63;8.80;;;10.40;96.00;;;;;;4132526;28;20054;-54
2023/05/03 03:21:19;;;;;;;18.35;9.23;;;10.50;96.00;;;;;;4116213;28;20343;-53
2023/05/03 03:23:25;;;;;;;18.60;9.63;;;10.50;96.00;;;;;;4133640;28;20054;-54
2023/05/03 03:25:27;;;;;;;14.77;8.52;;;10.50;96.00;;;;;;4133355;28;20142;-53
2023/05/03 03:27:29;;;;;;;14.32;9.05;;;10.40;96.10;;;;;;4133536;28;20476;-53
2023/05/03 03:29:31;;;;;;;17.33;8.63;;;10.40;96.20;;;;;;4132798;28;20054;-54
2023/05/03 03:31:34;;;;;;;17.33;8.85;;;10.40;96.10;;;;;;4133758;28;20046;-54
2023/05/03 03:33:36;;;;;;;16.10;9.02;;;10.40;96.10;;;;;;4133184;28;20047;-54
2023/05/03 03:35:38;;;;;;;14.95;10.13;;;10.30;96.20;;;;;;4133563;28;20050;-54
2023/05/03 03:37:42;;;;;;;15.05;9.38;;;10.30;96.10;;;;;;4133669;28;20105;-54
2023/05/03 03:39:44;;;;;;;17.80;8.82;;;10.20;96.30;;;;;;4132456;28;20072;-53
2023/05/03 03:41:46;;;;;;;15.05;9.40;;;10.20;96.50;;;;;;4115994;28;20415;-54
2023/05/03 03:43:48;;;;;;;19.40;9.25;;;10.30;96.50;;;;;;4133365;28;20077;-54
2023/05/03 03:45:50;;;;;;;18.17;9.57;;;10.30;96.50;;;;;;4133171;28;20050;-53
2023/05/03 03:47:52;;;;;;;19.83;9.93;;;10.20;96.50;;;;;;4132899;28;20061;-53
2023/05/03 03:49:54;;;;;;;20.73;10.48;;;10.20;96.50;;;;;;4132414;28;20057;-54
2023/05/03 03:51:57;;;;;;;19.55;10.30;;;10.20;96.60;;;;;;4115941;28;20078;-54
2023/05/03 03:54:00;;;;;;;17.65;9.95;;;10.20;96.50;;;;;;4133221;28;20129;-51
2023/05/03 03:56:02;;;;;;;19.00;9.82;;;10.10;96.50;;;;;;4115959;28;20054;-50
2023/05/03 03:58:04;;;;;;;17.27;9.90;;;10.10;96.60;;;;;;4133767;28;20042;-53
2023/05/03 04:00:09;;;;;;;17.73;10.10;;;10.10;96.70;;;;;;4115321;28;20137;-53
2023/05/03 04:02:11;;;;;;;17.17;9.20;;;10.10;96.60;;;;;;4133392;28;20046;-51
2023/05/03 04:04:13;;;;;;;16.45;10.07;;;10.00;96.70;;;;;;4132933;28;20137;-53
2023/05/03 04:06:15;;;;;;;20.27;9.48;;;10.00;96.80;;;;;;4133197;28;20472;-54
2023/05/03 04:08:17;;;;;;;18.58;9.85;;;10.10;96.70;;;;;;4133086;28;20046;-51
2023/05/03 04:10:21;;;;;;;17.08;10.02;;;10.00;96.80;;;;;;4132243;28;20068;-52
2023/05/03 04:12:23;;;;;;;19.83;10.20;;;10.00;96.80;;;;;;4115677;28;20420;-53
2023/05/03 04:14:25;;;;;;;19.70;10.40;;;10.00;96.90;;;;;;4132912;28;20428;-53
2023/05/03 04:16:27;;;;;;;19.63;9.90;;;9.90;96.90;;;;;;4132607;28;20517;-52
2023/05/03 04:18:29;;;;;;;17.98;10.55;;;9.90;96.90;;;;;;4132183;28;20121;-54
2023/05/03 04:20:35;;;;;;;22.95;10.18;;;9.90;96.90;;;;;;4132730;28;20058;-53
2023/05/03 04:22:40;;;;;;;17.20;10.23;;;9.90;97.00;;;;;;4132661;28;20073;-54
2023/05/03 04:24:43;;;;;;;21.75;10.60;;;9.90;97.10;;;;;;4133087;28;20494;-53
2023/05/03 04:26:46;;;;;;;17.05;10.82;;;9.90;97.10;;;;;;4132350;28;20046;-53
2023/05/03 04:28:48;;;;;;;23.05;11.77;;;9.90;97.10;;;;;;4131708;28;20180;-53
2023/05/03 04:30:51;;;;;;;19.98;11.10;;;9.90;97.10;;;;;;4132441;28;20056;-52
2023/05/03 04:32:54;;;;;;;20.13;10.80;;;9.80;97.20;;;;;;4132635;28;20050;-53
2023/05/03 04:34:57;;;;;;;16.75;10.23;;;9.80;97.40;;;;;;4132549;28;20469;-54
2023/05/03 04:36:59;;;;;;;24.55;10.85;;;9.90;97.20;;;;;;4115495;28;20126;-53
2023/05/03 04:39:01;;;;;;;18.27;11.05;;;9.90;97.20;;;;;;4131714;28;20458;-54
2023/05/03 04:41:03;;;;;;;17.60;11.73;;;9.90;97.20;;;;;;4132547;28;20050;-53
2023/05/03 04:43:07;;;;;;;20.05;11.48;;;9.90;97.20;;;;;;4132696;28;20160;-54
2023/05/03 04:45:10;;;;;;;18.70;10.93;;;9.90;97.20;;;;;;4132039;28;20069;-51
2023/05/03 04:47:12;;;;;;;19.85;11.13;;;9.90;97.30;;;;;;4132431;28;20058;-51
2023/05/03 04:49:15;;;;;;;21.20;11.75;;;9.90;97.10;;;;;;4131381;28;20454;-53
2023/05/03 04:51:17;;;;;;;23.27;11.23;;;9.80;97.20;;;;;;4132431;28;20043;-53
2023/05/03 04:53:19;;;;;;;22.88;11.70;;;9.80;97.20;;;;;;4132691;28;20093;-53
2023/05/03 04:55:21;;;;;;;22.25;11.32;;;9.80;97.30;;;;;;4132159;28;20047;-54
2023/05/03 04:57:23;;;;;;;21.08;11.45;;;9.70;97.20;;;;;;4115383;28;20098;-54
2023/05/03 04:59:27;;;;;;;20.90;11.15;;;9.70;97.40;;;;;;4131282;28;20046;-54
2023/05/03 05:01:29;;;;;;;21.30;11.05;;;9.80;97.50;;;;;;4132966;28;20320;-54
2023/05/03 05:03:32;;;;;;;20.70;11.45;;;9.80;97.30;;;;;;4132666;28;20491;-54
2023/05/03 05:05:34;;;;;;;19.42;11.02;;;9.70;97.40;;;;;;4132380;28;20082;-54
2023/05/03 05:07:36;;;;;;;19.52;11.43;;;9.70;97.50;;;;;;4132124;28;20046;-54
2023/05/03 05:09:39;;;;;;;21.25;11.98;;;9.70;97.50;;;;;;4131109;28;20042;-54
2023/05/03 05:11:41;;;;;;;19.33;12.43;;;9.70;97.40;;;;;;4114780;28;20047;-53
2023/05/03 05:13:44;;;;;;;27.40;11.95;;;9.70;97.50;;;;;;4131573;28;20054;-53
2023/05/03 05:15:47;;;;;;;21.67;11.48;;;9.70;97.60;;;;;;4131870;28;20455;-55
2023/05/03 05:17:49;;;;;;;22.80;12.07;;;9.70;97.50;;;;;;4132142;28;20050;-54
2023/05/03 05:19:51;;;;;;;19.52;11.90;;;9.70;97.60;;;;;;4130852;28;20049;-54
2023/05/03 05:21:54;;;;;;;18.42;11.45;;;9.70;97.50;;;;;;4131782;28;20534;-53
2023/05/03 05:23:56;;;;;;;23.95;12.10;;;9.70;97.60;;;;;;4132141;28;20420;-54
2023/05/03 05:25:59;;;;;;;24.70;12.23;;;9.80;97.60;;;;;;4131957;28;20050;-53
2023/05/03 05:28:01;;;;;;;26.58;12.00;;;9.70;97.50;;;;;;4132128;28;20042;-54
2023/05/03 05:30:05;;;;;;;24.75;12.85;;;9.70;97.50;;;;;;4131548;28;20137;-53
2023/05/03 05:32:09;;;;;;;23.42;12.57;;;9.70;97.60;;;;;;4132274;28;20050;-53
2023/05/03 05:34:11;;;;;;;26.92;13.15;;;9.70;97.50;;;;;;4132268;28;20078;-53
2023/05/03 05:36:13;;;;;;;22.50;11.60;;;9.70;97.60;;;;;;4132219;28;20124;-52
2023/05/03 05:38:16;;;;;;;25.58;12.63;;;9.80;97.70;;;;;;4131165;28;20165;-53
2023/05/03 05:40:18;;;;;;;20.40;11.77;;;9.80;97.50;;;;;;4113706;28;20416;-55
2023/05/03 05:42:20;;;;;;;25.33;11.75;;;9.90;97.50;;;;;;4132116;28;20046;-54
2023/05/03 05:44:22;;;;;;;21.88;11.40;;;9.90;97.40;;;;;;4131332;28;20102;-53
2023/05/03 05:46:24;;;;;;;21.75;11.77;;;10.00;97.40;;;;;;4131539;28;20057;-54
2023/05/03 05:48:28;;;;;;;26.77;11.10;;;10.00;97.30;;;;;;4132081;28;20070;-52
2023/05/03 05:50:30;;;;;;;23.15;11.82;;;10.00;97.20;;;;;;4130781;28;20129;-54
2023/05/03 05:52:32;;;;;;;22.75;11.98;;;10.00;97.20;;;;;;4131318;28;20104;-53
2023/05/03 05:54:35;;;;;;;19.88;12.25;;;9.90;97.30;;;;;;4131498;28;20085;-53
2023/05/03 05:56:37;;;;;;;29.23;13.30;;;9.90;97.30;;;;;;4131506;28;20117;-54
2023/05/03 05:58:39;;;;;;;17.10;11.18;;;9.90;97.30;;;;;;4131045;28;20084;-53
2023/05/03 06:00:41;;;;;;;19.02;12.00;;;9.90;97.30;;;;;;4130895;28;20069;-55
2023/05/03 06:02:43;;;;;;;29.77;12.57;;;10.00;97.30;;;;;;4131423;28;20050;-54
2023/05/03 06:04:47;;;;;;;19.38;11.05;;;10.00;97.10;;;;;;4131244;28;20546;-53
2023/05/03 06:06:49;;;;;;;23.67;11.80;;;10.00;97.20;;;;;;4131783;28;20129;-53
2023/05/03 06:08:51;;;;;;;25.10;11.85;;;10.10;97.10;;;;;;4130776;28;20462;-54
2023/05/03 06:10:54;;;;;;;33.25;11.75;;;10.10;97.10;;;;;;4113847;28;20050;-53
2023/05/03 06:12:56;;;;;;;23.23;11.88;;;10.20;97.10;;;;;;4131141;28;20546;-53
2023/05/03 06:14:58;;;;;;;23.73;11.65;;;10.40;97.00;;;;;;4131060;28;20043;-54
2023/05/03 06:17:06;;;;;;;27.05;11.30;;;10.40;96.70;;;;;;4114921;28;20487;-53
2023/05/03 06:19:08;;;;;;;32.65;12.13;;;10.50;96.70;;;;;;4130274;28;20386;-53
2023/05/03 06:21:12;;;;;;;28.15;11.95;;;10.60;96.50;;;;;;4130892;28;20495;-53
2023/05/03 06:23:14;;;;;;;36.55;13.10;;;10.70;96.50;;;;;;4131284;28;20136;-53
2023/05/03 06:25:16;;;;;;;56.58;13.23;;;10.70;96.50;;;;;;4113937;28;20051;-53
2023/05/03 06:27:19;;;;;;;46.60;14.10;;;10.70;96.50;;;;;;4131084;28;20073;-52
2023/05/03 06:29:21;;;;;;;29.15;11.43;;;10.80;96.40;;;;;;4130067;28;20084;-52
2023/05/03 06:31:23;;;;;;;29.67;10.82;;;10.90;96.40;;;;;;4131146;28;20061;-54
2023/05/03 06:33:25;;;;;;;31.23;11.05;;;11.00;96.10;;;;;;4130192;28;20053;-53
2023/05/03 06:35:27;;;;;;;20.08;10.93;;;11.00;96.20;;;;;;4131089;28;20049;-52
2023/05/03 06:37:30;;;;;;;36.75;11.95;;;10.90;96.10;;;;;;4131259;28;20051;-52
2023/05/03 06:39:33;;;;;;;41.38;12.00;;;10.90;96.10;;;;;;4130339;28;20050;-53
2023/05/03 06:41:35;;;;;;;20.13;11.52;;;11.00;96.40;;;;;;4130837;28;20385;-53
2023/05/03 06:43:37;;;;;;;21.90;10.05;;;11.10;96.00;;;;;;4130985;28;20120;-54
2023/05/03 06:45:41;;;;;;;25.65;10.88;;;11.20;96.20;;;;;;4131042;28;20121;-53
2023/05/03 06:47:43;;;;;;;21.80;10.25;;;11.30;95.90;;;;;;4130983;28;20412;-53
2023/05/03 06:49:46;;;;;;;19.42;8.38;;;11.30;96.00;;;;;;4130062;28;20075;-54
2023/05/03 06:51:48;;;;;;;19.55;9.88;;;11.40;96.20;;;;;;4134451;28;20050;-53
2023/05/03 06:53:51;;;;;;;27.88;10.63;;;11.50;95.70;;;;;;4134047;28;20069;-54
2023/05/03 06:55:54;;;;;;;24.33;10.18;;;11.60;95.70;;;;;;4134057;28;20070;-53
2023/05/03 06:57:56;;;;;;;32.65;11.43;;;11.60;95.40;;;;;;4134128;28;20068;-53
2023/05/03 06:59:59;;;;;;;26.90;10.15;;;11.70;95.40;;;;;;4133239;28;20054;-53
2023/05/03 07:02:01;;;;;;;41.67;10.75;;;11.70;95.20;;;;;;4118031;28;20437;-53
2023/05/03 07:04:03;;;;;;;25.02;10.13;;;11.80;95.40;;;;;;4107532;28;20130;-54
2023/05/03 07:06:06;;;;;;;23.40;9.68;;;12.00;95.00;;;;;;4109550;28;20381;-54
2023/05/03 07:08:08;;;;;;;20.02;9.30;;;12.10;94.90;;;;;;4113249;28;20045;-54
2023/05/03 07:10:11;;;;;;;25.20;9.98;;;12.10;94.90;;;;;;4116286;28;20093;-53
2023/05/03 07:12:13;;;;;;;21.85;9.10;;;12.20;94.80;;;;;;4117596;28;20151;-54
2023/05/03 07:14:15;;;;;;;23.05;8.50;;;12.30;94.90;;;;;;4117512;28;20138;-54
2023/05/03 07:16:18;;;;;;;26.02;8.45;;;12.40;94.60;;;;;;4117559;28;20090;-54
2023/05/03 07:18:20;;;;;;;33.33;9.48;;;12.50;94.70;;;;;;4117665;28;20086;-53
2023/05/03 07:20:22;;;;;;;18.70;8.82;;;12.70;94.30;;;;;;4108924;28;20121;-53
2023/05/03 07:22:24;;;;;;;18.70;8.68;;;12.80;94.10;;;;;;4117280;28;20491;-54
2023/05/03 07:24:27;;;;;;;25.55;8.88;;;13.00;94.00;;;;;;4117065;28;20416;-52
2023/05/03 07:26:30;;;;;;;25.70;8.43;;;13.10;93.30;;;;;;4129386;28;20050;-54
2023/05/03 07:28:33;;;;;;;22.98;8.55;;;13.30;93.50;;;;;;4133642;28;20046;-54
2023/05/03 07:30:35;;;;;;;15.48;8.85;;;13.60;93.40;;;;;;4132500;28;20054;-55
2023/05/03 07:32:37;;;;;;;23.38;8.68;;;13.70;92.60;;;;;;4133872;28;20484;-54
2023/05/03 07:34:39;;;;;;;28.70;8.07;;;13.70;92.40;;;;;;4133545;28;20472;-54
2023/05/03 07:36:42;;;;;;;41.40;10.13;;;13.90;92.20;;;;;;4133392;28;20415;-52
2023/05/03 07:38:44;;;;;;;23.48;8.95;;;13.90;91.90;;;;;;4119808;28;20065;-54
2023/05/03 07:40:46;;;;;;;30.67;10.13;;;14.10;91.60;;;;;;4116083;28;20374;-53
2023/05/03 07:42:49;;;;;;;27.25;8.88;;;14.10;91.50;;;;;;4117402;28;20125;-53
2023/05/03 07:44:51;;;;;;;24.98;7.35;;;14.10;90.90;;;;;;4117160;28;20047;-53
2023/05/03 07:46:53;;;;;;;34.80;8.30;;;14.20;91.20;;;;;;4117297;28;20061;-53
2023/05/03 07:48:57;;;;;;;21.52;7.45;;;14.30;91.30;;;;;;4117409;28;20050;-54
2023/05/03 07:50:59;;;;;;;13.80;7.60;;;14.30;91.10;;;;;;4116088;28;20050;-54
2023/05/03 07:53:01;;;;;;;36.80;12.98;;;14.30;91.10;;;;;;4116783;28;20110;-53
2023/05/03 07:55:04;;;;;;;17.85;8.60;;;14.10;91.20;;;;;;4117286;28;20054;-52
2023/05/03 07:57:06;;;;;;;20.10;8.43;;;14.20;91.00;;;;;;4117174;28;20047;-53
2023/05/03 07:59:10;;;;;;;20.98;8.55;;;14.10;90.80;;;;;;4117008;28;20054;-52
2023/05/03 08:01:12;;;;;;;20.40;7.88;;;14.30;91.10;;;;;;4116112;28;20050;-51
2023/05/03 08:03:14;;;;;;;12.43;7.40;;;14.40;90.90;;;;;;4116516;28;20122;-52
2023/05/03 08:05:16;;;;;;;21.67;7.53;;;14.50;90.70;;;;;;4117177;28;20054;-53
2023/05/03 08:07:19;;;;;;;24.33;7.30;;;14.60;91.00;;;;;;4115214;28;20117;-53
2023/05/03 08:09:22;;;;;;;20.48;7.80;;;14.70;91.00;;;;;;4115241;28;20046;-54
2023/05/03 08:11:26;;;;;;;20.10;7.70;;;14.70;90.70;;;;;;4111908;28;20051;-53
2023/05/03 08:13:28;;;;;;;15.93;6.88;;;14.70;90.80;;;;;;4116436;28;20046;-53
2023/05/03 08:15:31;;;;;;;24.58;7.47;;;14.80;90.60;;;;;;4107174;28;20043;-53
2023/05/03 08:17:40;;;;;;;17.42;7.05;;;15.00;90.60;;;;;;4095769;28;20051;-53
2023/05/03 08:19:42;;;;;;;23.80;7.60;;;15.10;90.60;;;;;;4111977;28;20039;-60
2023/05/03 08:21:45;;;;;;;19.48;7.80;;;15.00;90.20;;;;;;4112732;28;20393;-53
2023/05/03 08:23:47;;;;;;;14.77;7.13;;;15.00;90.50;;;;;;4108027;28;20106;-52
2023/05/03 08:25:50;;;;;;;15.27;6.75;;;15.10;90.90;;;;;;4110583;28;20050;-53
2023/05/03 08:27:52;;;;;;;18.05;7.57;;;15.20;90.70;;;;;;4108500;28;20114;-53
2023/05/03 08:29:54;;;;;;;17.17;7.55;;;15.40;90.30;;;;;;4111922;28;20122;-62
2023/05/03 08:31:58;;;;;;;19.45;7.03;;;15.30;90.50;;;;;;4117506;28;20110;-55
2023/05/03 08:34:00;;;;;;;20.88;7.72;;;15.40;90.20;;;;;;4115774;28;20051;-57
2023/05/03 08:36:02;;;;;;;14.75;7.18;;;15.40;90.30;;;;;;4114170;28;20050;-54
2023/05/03 08:38:05;;;;;;;16.48;6.90;;;15.40;90.40;;;;;;4111876;28;20047;-54
2023/05/03 08:40:10;;;;;;;25.20;8.30;;;15.40;90.30;;;;;;4096475;29;20432;-52
2023/05/03 08:42:15;;;;;;;15.88;7.40;;;15.40;90.20;;;;;;4109878;28;20073;-52
2023/05/03 08:44:22;;;;;;;12.90;6.35;;;15.40;90.30;;;;;;4090766;29;20142;-52
2023/05/03 08:46:27;;;;;;;25.92;9.00;;;15.30;90.40;;;;;;4107308;28;20082;-54
2023/05/03 08:48:30;;;;;;;26.38;7.13;;;15.30;90.50;;;;;;4107383;28;20051;-53
2023/05/03 08:50:40;;;;;;;31.85;8.50;;;15.50;90.60;;;;;;4090849;29;20047;-53
2023/05/03 08:52:43;;;;;;;29.63;8.00;;;15.60;90.10;;;;;;4109657;28;20047;-52
2023/05/03 08:54:45;;;;;;;15.60;7.18;;;15.70;90.40;;;;;;4107439;28;20047;-58
2023/05/03 08:56:48;;;;;;;19.88;7.88;;;15.60;90.20;;;;;;4108875;28;20094;-53
2023/05/03 08:58:50;;;;;;;19.95;7.15;;;15.50;90.10;;;;;;4108416;28;20553;-53
2023/05/03 09:00:52;;;;;;;22.55;6.75;;;15.50;90.10;;;;;;4106498;28;20047;-54
2023/05/03 09:02:54;;;;;;;25.88;6.95;;;15.70;90.20;;;;;;4107243;28;20043;-53
2023/05/03 09:04:58;;;;;;;25.80;7.72;;;15.80;90.00;;;;;;4107561;28;20043;-54
2023/05/03 09:07:07;;;;;;;16.73;6.97;;;15.80;89.60;;;;;;4107635;28;20047;-53
2023/05/03 09:09:09;;;;;;;20.65;7.22;;;15.70;89.10;;;;;;4090052;29;20058;-51
2023/05/03 09:11:19;;;;;;;20.90;6.97;;;15.80;89.80;;;;;;4112225;28;20050;-54
2023/05/03 09:13:30;;;;;;;25.45;6.78;;;15.90;89.30;;;;;;4111328;28;20130;-53
2023/05/03 09:15:33;;;;;;;20.17;7.38;;;15.90;88.90;;;;;;4108087;28;20047;-54
2023/05/03 09:17:35;;;;;;;25.50;6.97;;;16.00;89.10;;;;;;4110988;28;20195;-54
2023/05/03 09:19:48;;;;;;;15.18;6.93;;;16.10;89.50;;;;;;4110152;28;20047;-54
2023/05/03 09:22:05;;;;;;;23.45;7.68;;;16.20;88.00;;;;;;4109667;28;20556;-51
2023/05/03 09:24:12;;;;;;;17.50;7.22;;;16.30;88.20;;;;;;4106933;28;20098;-53
2023/05/03 09:26:27;;;;;;;14.82;7.10;;;16.30;87.80;;;;;;4112165;28;20129;-54
2023/05/03 09:28:29;;;;;;;20.10;5.80;;;16.40;87.70;;;;;;4107014;28;20049;-53
2023/05/03 09:30:31;;;;;;;13.38;6.85;;;16.40;87.60;;;;;;4105494;28;20117;-53
2023/05/03 09:32:47;;;;;;;29.13;8.00;;;16.40;86.80;;;;;;4108964;28;20046;-53
2023/05/03 09:34:49;;;;;;;16.88;6.88;;;16.60;86.60;;;;;;4115032;28;20489;-53
2023/05/03 09:36:53;;;;;;;17.65;5.90;;;16.60;86.90;;;;;;4114571;28;20054;-51
2023/05/03 09:38:56;;;;;;;12.45;6.18;;;16.70;86.90;;;;;;4113498;28;20461;-52
2023/05/03 09:40:58;;;;;;;17.45;5.93;;;16.60;87.10;;;;;;4113398;28;20054;-52
2023/05/03 09:43:07;;;;;;;16.15;5.50;;;16.80;86.70;;;;;;4111828;28;20047;-55
2023/05/03 09:45:10;;;;;;;23.88;5.78;;;16.80;85.70;;;;;;4112233;28;20046;-61
2023/05/03 09:47:12;;;;;;;18.80;6.35;;;16.80;86.60;;;;;;4115340;28;20051;-55
2023/05/03 09:49:14;;;;;;;14.85;6.32;;;16.80;85.00;;;;;;4112849;28;20129;-56
2023/05/03 09:51:19;;;;;;;;;;;16.70;84.70;;;;;;4114613;28;20051;-53
2023/05/03 09:53:24;;;;;;;11.45;5.75;;;16.60;84.40;;;;;;4114911;28;19922;-55
2023/05/03 09:55:30;;;;;;;13.75;6.05;;;16.50;84.50;;;;;;4112504;28;20072;-52
2023/05/03 09:57:32;;;;;;;11.60;6.13;;;16.60;85.70;;;;;;4109935;28;20417;-52
2023/05/03 09:59:36;;;;;;;12.68;6.32;;;16.60;86.20;;;;;;4113473;28;20098;-54
2023/05/03 10:01:38;;;;;;;11.15;6.03;;;16.70;85.80;;;;;;4112294;28;20113;-54
2023/05/03 10:04:00;;;;;;;10.80;5.60;;;16.80;86.40;;;;;;4113766;28;20585;-51
2023/05/03 10:06:05;;;;;;;13.77;5.82;;;16.90;86.30;;;;;;4114676;28;20554;-55
2023/05/03 10:08:11;;;;;;;15.00;5.80;;;16.90;85.90;;;;;;4114555;28;20407;-55
2023/05/03 10:10:15;;;;;;;17.05;5.60;;;16.90;85.90;;;;;;4113849;28;20448;-52
2023/05/03 10:12:18;;;;;;;14.57;6.00;;;16.90;86.20;;;;;;4112577;28;20055;-53
2023/05/03 10:14:21;;;;;;;13.00;5.75;;;16.90;86.20;;;;;;4113898;28;20430;-54
2023/05/03 10:16:28;;;;;;;18.27;6.10;;;17.00;85.90;;;;;;4114917;28;20051;-54
2023/05/03 10:18:36;;;;;;;17.73;5.82;;;17.10;85.50;;;;;;4114116;28;20552;-54
2023/05/03 10:20:43;;;;;;;9.45;5.45;;;17.20;85.80;;;;;;4113517;28;20077;-54
2023/05/03 10:23:11;;;;;;;14.88;5.45;;;17.10;84.80;;;;;;4114539;28;20059;-52
2023/05/03 10:25:14;;;;;;;12.65;5.63;;;17.10;85.90;;;;;;4115146;28;20121;-54
2023/05/03 10:27:17;;;;;;;10.93;5.25;;;17.30;85.40;;;;;;4117518;28;20110;-55
2023/05/03 10:29:50;;;;;;;12.40;5.07;;;17.30;86.10;;;;;;4117327;28;20466;-54
2023/05/03 10:31:52;;;;;;;11.82;6.15;;;17.30;85.10;;;;;;4117700;28;20053;-54
2023/05/03 10:33:55;;;;;;;9.57;4.85;;;17.20;85.20;;;;;;4116449;28;20455;-53